sensor_id;sensor_type;location;lat;lon;timestamp;P1;durP1;ratioP1;P2;durP2;ratioP2
8952;SDS011;4511;50.890;8.054;2024-02-23T00:01:31;3.83;;;2.00;;
8952;SDS011;4511;50.890;8.054;2024-02-23T00:03:57;2.30;;;2.20;;
8952;SDS011;4511;50.890;8.054;2024-02-23T00:06:24;2.10;;;1.90;;
8952;SDS011;4511;50.890;8.054;2024-02-23T00:08:52;2.30;;;2.10;;
8952;SDS011;4511;50.890;8.054;2024-02-23T00:11:21;2.00;;;1.90;;
8952;SDS011;4511;50.890;8.054;2024-02-23T00:13:47;2.10;;;1.90;;
8952;SDS011;4511;50.890;8.054;2024-02-23T00:16:14;2.10;;;2.00;;
8952;SDS011;4511;50.890;8.054;2024-02-23T00:18:41;2.20;;;1.90;;
8952;SDS011;4511;50.890;8.054;2024-02-23T00:21:08;3.73;;;1.97;;
8952;SDS011;4511;50.890;8.054;2024-02-23T00:23:34;2.00;;;1.90;;
8952;SDS011;4511;50.890;8.054;2024-02-23T00:26:01;2.93;;;2.07;;
8952;SDS011;4511;50.890;8.054;2024-02-23T00:28:29;2.00;;;1.90;;
8952;SDS011;4511;50.890;8.054;2024-02-23T00:30:56;2.20;;;2.10;;
8952;SDS011;4511;50.890;8.054;2024-02-23T00:33:23;2.07;;;1.97;;
8952;SDS011;4511;50.890;8.054;2024-02-23T00:35:49;2.10;;;2.00;;
8952;SDS011;4511;50.890;8.054;2024-02-23T00:38:16;2.10;;;2.00;;
8952;SDS011;4511;50.890;8.054;2024-02-23T00:40:43;2.20;;;2.00;;
8952;SDS011;4511;50.890;8.054;2024-02-23T00:43:10;1.90;;;1.80;;
8952;SDS011;4511;50.890;8.054;2024-02-23T00:45:38;2.00;;;1.90;;
8952;SDS011;4511;50.890;8.054;2024-02-23T00:48:06;2.10;;;2.00;;
8952;SDS011;4511;50.890;8.054;2024-02-23T00:50:33;4.23;;;2.00;;
8952;SDS011;4511;50.890;8.054;2024-02-23T00:53:00;1.83;;;1.80;;
8952;SDS011;4511;50.890;8.054;2024-02-23T00:55:26;2.20;;;2.10;;
8952;SDS011;4511;50.890;8.054;2024-02-23T00:57:53;2.00;;;1.90;;
8952;SDS011;4511;50.890;8.054;2024-02-23T01:00:20;2.10;;;2.00;;
8952;SDS011;4511;50.890;8.054;2024-02-23T01:02:48;2.20;;;2.00;;
8952;SDS011;4511;50.890;8.054;2024-02-23T01:05:15;2.10;;;2.00;;
8952;SDS011;4511;50.890;8.054;2024-02-23T01:07:41;2.00;;;1.90;;
8952;SDS011;4511;50.890;8.054;2024-02-23T01:10:08;2.10;;;2.00;;
8952;SDS011;4511;50.890;8.054;2024-02-23T01:12:35;2.20;;;2.10;;
8952;SDS011;4511;50.890;8.054;2024-02-23T01:15:02;2.10;;;2.00;;
8952;SDS011;4511;50.890;8.054;2024-02-23T01:17:29;2.20;;;2.10;;
8952;SDS011;4511;50.890;8.054;2024-02-23T01:19:57;2.10;;;2.00;;
8952;SDS011;4511;50.890;8.054;2024-02-23T01:22:25;2.00;;;1.90;;
8952;SDS011;4511;50.890;8.054;2024-02-23T01:24:51;2.07;;;1.97;;
8952;SDS011;4511;50.890;8.054;2024-02-23T01:27:18;2.00;;;1.90;;
8952;SDS011;4511;50.890;8.054;2024-02-23T01:29:45;2.37;;;2.10;;
8952;SDS011;4511;50.890;8.054;2024-02-23T01:32:11;2.10;;;2.00;;
8952;SDS011;4511;50.890;8.054;2024-02-23T01:34:38;1.90;;;1.90;;
8952;SDS011;4511;50.890;8.054;2024-02-23T01:37:06;2.10;;;2.00;;
8952;SDS011;4511;50.890;8.054;2024-02-23T01:39:34;2.10;;;2.00;;
8952;SDS011;4511;50.890;8.054;2024-02-23T01:42:01;2.13;;;2.03;;
8952;SDS011;4511;50.890;8.054;2024-02-23T01:44:27;2.10;;;2.00;;
8952;SDS011;4511;50.890;8.054;2024-02-23T01:46:54;2.17;;;2.07;;
8952;SDS011;4511;50.890;8.054;2024-02-23T01:49:21;2.10;;;2.00;;
8952;SDS011;4511;50.890;8.054;2024-02-23T01:51:54;2.10;;;2.00;;
8952;SDS011;4511;50.890;8.054;2024-02-23T01:54:22;1.93;;;1.90;;
8952;SDS011;4511;50.890;8.054;2024-02-23T01:56:50;2.27;;;2.00;;
8952;SDS011;4511;50.890;8.054;2024-02-23T01:59:17;4.00;;;2.03;;
8952;SDS011;4511;50.890;8.054;2024-02-23T02:01:45;1.90;;;1.90;;
8952;SDS011;4511;50.890;8.054;2024-02-23T02:04:12;2.10;;;2.00;;
8952;SDS011;4511;50.890;8.054;2024-02-23T02:06:38;2.17;;;2.07;;
8952;SDS011;4511;50.890;8.054;2024-02-23T02:09:05;2.27;;;2.17;;
8952;SDS011;4511;50.890;8.054;2024-02-23T02:11:34;2.27;;;2.17;;
8952;SDS011;4511;50.890;8.054;2024-02-23T02:14:01;2.10;;;2.00;;
8952;SDS011;4511;50.890;8.054;2024-02-23T02:16:28;2.30;;;2.10;;
8952;SDS011;4511;50.890;8.054;2024-02-23T02:18:55;2.30;;;2.20;;
8952;SDS011;4511;50.890;8.054;2024-02-23T02:21:21;2.13;;;2.03;;
8952;SDS011;4511;50.890;8.054;2024-02-23T02:23:50;2.30;;;2.20;;
8952;SDS011;4511;50.890;8.054;2024-02-23T02:26:16;2.10;;;2.00;;
8952;SDS011;4511;50.890;8.054;2024-02-23T02:28:45;2.80;;;2.60;;
8952;SDS011;4511;50.890;8.054;2024-02-23T02:31:12;2.20;;;2.10;;
8952;SDS011;4511;50.890;8.054;2024-02-23T02:33:39;2.23;;;2.10;;
8952;SDS011;4511;50.890;8.054;2024-02-23T02:36:06;2.60;;;2.23;;
8952;SDS011;4511;50.890;8.054;2024-02-23T02:38:33;2.20;;;2.10;;
8952;SDS011;4511;50.890;8.054;2024-02-23T02:41:00;2.23;;;2.13;;
8952;SDS011;4511;50.890;8.054;2024-02-23T02:43:27;9.70;;;2.50;;
8952;SDS011;4511;50.890;8.054;2024-02-23T02:45:55;3.57;;;2.40;;
8952;SDS011;4511;50.890;8.054;2024-02-23T02:48:22;3.33;;;2.27;;
8952;SDS011;4511;50.890;8.054;2024-02-23T02:50:48;2.40;;;2.30;;
8952;SDS011;4511;50.890;8.054;2024-02-23T02:53:16;4.37;;;2.50;;
8952;SDS011;4511;50.890;8.054;2024-02-23T02:55:43;2.40;;;2.20;;
8952;SDS011;4511;50.890;8.054;2024-02-23T02:58:10;2.53;;;2.43;;
8952;SDS011;4511;50.890;8.054;2024-02-23T03:00:37;2.60;;;2.40;;
8952;SDS011;4511;50.890;8.054;2024-02-23T03:03:06;2.30;;;2.20;;
8952;SDS011;4511;50.890;8.054;2024-02-23T03:05:32;2.30;;;2.20;;
8952;SDS011;4511;50.890;8.054;2024-02-23T03:07:59;3.93;;;2.20;;
8952;SDS011;4511;50.890;8.054;2024-02-23T03:10:26;2.37;;;2.20;;
8952;SDS011;4511;50.890;8.054;2024-02-23T03:12:52;3.17;;;2.30;;
8952;SDS011;4511;50.890;8.054;2024-02-23T03:15:19;2.47;;;2.17;;
8952;SDS011;4511;50.890;8.054;2024-02-23T03:17:46;3.10;;;2.30;;
8952;SDS011;4511;50.890;8.054;2024-02-23T03:20:15;2.20;;;2.10;;
8952;SDS011;4511;50.890;8.054;2024-02-23T03:22:42;2.60;;;2.10;;
8952;SDS011;4511;50.890;8.054;2024-02-23T03:25:08;2.40;;;2.30;;
8952;SDS011;4511;50.890;8.054;2024-02-23T03:27:36;2.70;;;2.33;;
8952;SDS011;4511;50.890;8.054;2024-02-23T03:30:03;2.50;;;2.30;;
8952;SDS011;4511;50.890;8.054;2024-02-23T03:32:33;2.67;;;2.30;;
8952;SDS011;4511;50.890;8.054;2024-02-23T03:35:01;3.20;;;2.20;;
8952;SDS011;4511;50.890;8.054;2024-02-23T03:37:30;2.43;;;2.23;;
8952;SDS011;4511;50.890;8.054;2024-02-23T03:39:57;3.90;;;2.40;;
8952;SDS011;4511;50.890;8.054;2024-02-23T03:42:24;4.10;;;2.20;;
8952;SDS011;4511;50.890;8.054;2024-02-23T03:44:51;3.33;;;2.50;;
8952;SDS011;4511;50.890;8.054;2024-02-23T03:47:18;3.07;;;2.30;;
8952;SDS011;4511;50.890;8.054;2024-02-23T03:49:45;3.97;;;2.40;;
8952;SDS011;4511;50.890;8.054;2024-02-23T03:52:12;2.50;;;2.30;;
8952;SDS011;4511;50.890;8.054;2024-02-23T03:54:40;2.63;;;2.23;;
8952;SDS011;4511;50.890;8.054;2024-02-23T04:00:17;2.57;;;2.23;;
8952;SDS011;4511;50.890;8.054;2024-02-23T04:02:44;4.87;;;2.70;;
8952;SDS011;4511;50.890;8.054;2024-02-23T04:05:11;2.97;;;2.40;;
8952;SDS011;4511;50.890;8.054;2024-02-23T04:07:38;2.60;;;2.30;;
8952;SDS011;4511;50.890;8.054;2024-02-23T04:10:07;3.67;;;2.50;;
8952;SDS011;4511;50.890;8.054;2024-02-23T04:12:34;2.33;;;2.10;;
8952;SDS011;4511;50.890;8.054;2024-02-23T04:15:01;3.13;;;2.10;;
8952;SDS011;4511;50.890;8.054;2024-02-23T04:17:28;3.33;;;2.20;;
8952;SDS011;4511;50.890;8.054;2024-02-23T04:19:54;6.87;;;2.10;;
8952;SDS011;4511;50.890;8.054;2024-02-23T04:22:21;2.87;;;2.10;;
8952;SDS011;4511;50.890;8.054;2024-02-23T04:24:48;2.63;;;2.10;;
8952;SDS011;4511;50.890;8.054;2024-02-23T04:27:16;2.60;;;2.40;;
8952;SDS011;4511;50.890;8.054;2024-02-23T04:29:42;2.77;;;2.30;;
8952;SDS011;4511;50.890;8.054;2024-02-23T04:32:09;2.43;;;2.10;;
8952;SDS011;4511;50.890;8.054;2024-02-23T04:34:36;2.33;;;2.23;;
8952;SDS011;4511;50.890;8.054;2024-02-23T04:37:03;2.30;;;2.20;;
8952;SDS011;4511;50.890;8.054;2024-02-23T04:39:29;2.37;;;2.27;;
8952;SDS011;4511;50.890;8.054;2024-02-23T04:41:56;2.37;;;2.17;;
8952;SDS011;4511;50.890;8.054;2024-02-23T04:44:24;3.53;;;2.20;;
8952;SDS011;4511;50.890;8.054;2024-02-23T04:46:51;3.13;;;2.10;;
8952;SDS011;4511;50.890;8.054;2024-02-23T04:49:18;2.37;;;2.13;;
8952;SDS011;4511;50.890;8.054;2024-02-23T04:51:44;2.87;;;2.20;;
8952;SDS011;4511;50.890;8.054;2024-02-23T04:54:11;4.13;;;2.23;;
8952;SDS011;4511;50.890;8.054;2024-02-23T04:56:38;3.83;;;2.50;;
8952;SDS011;4511;50.890;8.054;2024-02-23T04:59:04;2.30;;;2.10;;
8952;SDS011;4511;50.890;8.054;2024-02-23T05:01:35;2.83;;;2.20;;
8952;SDS011;4511;50.890;8.054;2024-02-23T05:04:03;2.30;;;2.20;;
8952;SDS011;4511;50.890;8.054;2024-02-23T05:06:30;2.50;;;2.30;;
8952;SDS011;4511;50.890;8.054;2024-02-23T05:08:56;2.30;;;2.10;;
8952;SDS011;4511;50.890;8.054;2024-02-23T05:11:23;2.50;;;2.30;;
8952;SDS011;4511;50.890;8.054;2024-02-23T05:13:50;2.60;;;2.40;;
8952;SDS011;4511;50.890;8.054;2024-02-23T05:16:16;2.50;;;2.17;;
8952;SDS011;4511;50.890;8.054;2024-02-23T05:18:44;2.40;;;2.20;;
8952;SDS011;4511;50.890;8.054;2024-02-23T05:21:11;3.50;;;2.20;;
8952;SDS011;4511;50.890;8.054;2024-02-23T05:23:38;3.00;;;2.30;;
8952;SDS011;4511;50.890;8.054;2024-02-23T05:26:05;2.47;;;2.27;;
8952;SDS011;4511;50.890;8.054;2024-02-23T05:28:32;2.43;;;2.30;;
8952;SDS011;4511;50.890;8.054;2024-02-23T05:30:58;2.50;;;2.30;;
8952;SDS011;4511;50.890;8.054;2024-02-23T05:33:28;2.70;;;2.10;;
8952;SDS011;4511;50.890;8.054;2024-02-23T05:35:56;2.50;;;2.30;;
8952;SDS011;4511;50.890;8.054;2024-02-23T05:38:23;2.40;;;2.30;;
8952;SDS011;4511;50.890;8.054;2024-02-23T05:40:50;2.50;;;2.30;;
8952;SDS011;4511;50.890;8.054;2024-02-23T05:43:17;2.90;;;2.60;;
8952;SDS011;4511;50.890;8.054;2024-02-23T05:45:43;4.77;;;2.40;;
8952;SDS011;4511;50.890;8.054;2024-02-23T05:48:10;3.90;;;2.57;;
8952;SDS011;4511;50.890;8.054;2024-02-23T05:50:37;4.60;;;2.70;;
8952;SDS011;4511;50.890;8.054;2024-02-23T05:53:05;3.47;;;2.63;;
8952;SDS011;4511;50.890;8.054;2024-02-23T05:55:32;2.90;;;2.37;;
8952;SDS011;4511;50.890;8.054;2024-02-23T05:57:59;3.23;;;2.50;;
8952;SDS011;4511;50.890;8.054;2024-02-23T06:00:26;2.63;;;2.43;;
8952;SDS011;4511;50.890;8.054;2024-02-23T06:02:52;3.10;;;2.53;;
8952;SDS011;4511;50.890;8.054;2024-02-23T06:05:19;4.33;;;2.47;;
8952;SDS011;4511;50.890;8.054;2024-02-23T06:07:46;3.20;;;2.50;;
8952;SDS011;4511;50.890;8.054;2024-02-23T06:10:14;5.20;;;2.40;;
8952;SDS011;4511;50.890;8.054;2024-02-23T06:12:40;3.00;;;2.40;;
8952;SDS011;4511;50.890;8.054;2024-02-23T06:15:08;4.23;;;2.60;;
8952;SDS011;4511;50.890;8.054;2024-02-23T06:17:35;6.50;;;2.90;;
8952;SDS011;4511;50.890;8.054;2024-02-23T06:20:01;3.73;;;2.50;;
8952;SDS011;4511;50.890;8.054;2024-02-23T06:22:29;4.30;;;2.60;;
8952;SDS011;4511;50.890;8.054;2024-02-23T06:24:56;4.73;;;2.60;;
8952;SDS011;4511;50.890;8.054;2024-02-23T06:27:24;4.93;;;2.63;;
8952;SDS011;4511;50.890;8.054;2024-02-23T06:29:52;5.83;;;2.90;;
8952;SDS011;4511;50.890;8.054;2024-02-23T06:32:20;4.50;;;2.73;;
8952;SDS011;4511;50.890;8.054;2024-02-23T06:34:47;5.37;;;2.70;;
8952;SDS011;4511;50.890;8.054;2024-02-23T06:37:14;6.47;;;2.70;;
8952;SDS011;4511;50.890;8.054;2024-02-23T06:39:40;3.87;;;2.50;;
8952;SDS011;4511;50.890;8.054;2024-02-23T06:42:07;3.97;;;2.80;;
8952;SDS011;4511;50.890;8.054;2024-02-23T06:44:35;8.10;;;2.63;;
8952;SDS011;4511;50.890;8.054;2024-02-23T06:47:02;4.10;;;2.87;;
8952;SDS011;4511;50.890;8.054;2024-02-23T06:49:28;3.63;;;2.77;;
8952;SDS011;4511;50.890;8.054;2024-02-23T06:51:55;3.93;;;2.60;;
8952;SDS011;4511;50.890;8.054;2024-02-23T06:54:22;6.87;;;2.50;;
8952;SDS011;4511;50.890;8.054;2024-02-23T06:56:48;2.60;;;2.40;;
8952;SDS011;4511;50.890;8.054;2024-02-23T06:59:15;3.87;;;2.70;;
8952;SDS011;4511;50.890;8.054;2024-02-23T07:01:49;3.60;;;2.73;;
8952;SDS011;4511;50.890;8.054;2024-02-23T07:04:16;3.10;;;2.67;;
8952;SDS011;4511;50.890;8.054;2024-02-23T07:06:44;4.37;;;2.70;;
8952;SDS011;4511;50.890;8.054;2024-02-23T07:09:11;5.67;;;2.70;;
8952;SDS011;4511;50.890;8.054;2024-02-23T07:11:38;5.03;;;2.97;;
8952;SDS011;4511;50.890;8.054;2024-02-23T07:14:06;3.63;;;2.80;;
8952;SDS011;4511;50.890;8.054;2024-02-23T07:16:37;6.23;;;3.30;;
8952;SDS011;4511;50.890;8.054;2024-02-23T07:19:05;3.20;;;2.90;;
8952;SDS011;4511;50.890;8.054;2024-02-23T07:21:32;4.00;;;3.10;;
8952;SDS011;4511;50.890;8.054;2024-02-23T07:23:59;4.00;;;2.70;;
8952;SDS011;4511;50.890;8.054;2024-02-23T07:26:26;6.13;;;2.80;;
8952;SDS011;4511;50.890;8.054;2024-02-23T07:28:53;5.40;;;2.60;;
8952;SDS011;4511;50.890;8.054;2024-02-23T07:31:20;9.10;;;3.00;;
8952;SDS011;4511;50.890;8.054;2024-02-23T07:33:47;4.33;;;2.63;;
8952;SDS011;4511;50.890;8.054;2024-02-23T07:36:15;4.30;;;2.90;;
8952;SDS011;4511;50.890;8.054;2024-02-23T07:38:41;4.97;;;2.67;;
8952;SDS011;4511;50.890;8.054;2024-02-23T07:41:09;4.13;;;2.60;;
8952;SDS011;4511;50.890;8.054;2024-02-23T07:43:36;7.57;;;3.07;;
8952;SDS011;4511;50.890;8.054;2024-02-23T07:46:03;5.67;;;3.07;;
8952;SDS011;4511;50.890;8.054;2024-02-23T07:48:33;3.40;;;2.80;;
8952;SDS011;4511;50.890;8.054;2024-02-23T07:51:00;4.47;;;2.90;;
8952;SDS011;4511;50.890;8.054;2024-02-23T07:53:28;4.20;;;2.87;;
8952;SDS011;4511;50.890;8.054;2024-02-23T07:55:55;8.20;;;3.00;;
8952;SDS011;4511;50.890;8.054;2024-02-23T07:58:24;6.97;;;3.20;;
8952;SDS011;4511;50.890;8.054;2024-02-23T08:00:51;6.37;;;3.30;;
8952;SDS011;4511;50.890;8.054;2024-02-23T08:03:18;7.03;;;3.07;;
8952;SDS011;4511;50.890;8.054;2024-02-23T08:05:44;3.73;;;3.07;;
8952;SDS011;4511;50.890;8.054;2024-02-23T08:08:11;6.87;;;3.20;;
8952;SDS011;4511;50.890;8.054;2024-02-23T08:10:40;8.03;;;3.10;;
8952;SDS011;4511;50.890;8.054;2024-02-23T08:13:06;5.13;;;2.77;;
8952;SDS011;4511;50.890;8.054;2024-02-23T08:15:35;3.57;;;2.50;;
8952;SDS011;4511;50.890;8.054;2024-02-23T08:18:02;5.97;;;2.97;;
8952;SDS011;4511;50.890;8.054;2024-02-23T08:20:29;4.50;;;2.80;;
8952;SDS011;4511;50.890;8.054;2024-02-23T08:22:55;5.03;;;3.10;;
8952;SDS011;4511;50.890;8.054;2024-02-23T08:25:22;6.90;;;2.80;;
8952;SDS011;4511;50.890;8.054;2024-02-23T08:27:50;6.60;;;3.10;;
8952;SDS011;4511;50.890;8.054;2024-02-23T08:30:17;4.17;;;2.50;;
8952;SDS011;4511;50.890;8.054;2024-02-23T08:32:45;3.80;;;2.70;;
8952;SDS011;4511;50.890;8.054;2024-02-23T08:35:12;4.63;;;2.70;;
8952;SDS011;4511;50.890;8.054;2024-02-23T08:37:40;3.53;;;3.07;;
8952;SDS011;4511;50.890;8.054;2024-02-23T08:40:07;4.67;;;2.63;;
8952;SDS011;4511;50.890;8.054;2024-02-23T08:42:35;4.33;;;2.90;;
8952;SDS011;4511;50.890;8.054;2024-02-23T08:45:03;2.87;;;2.50;;
8952;SDS011;4511;50.890;8.054;2024-02-23T08:47:30;4.20;;;2.43;;
8952;SDS011;4511;50.890;8.054;2024-02-23T08:50:00;10.20;;;3.03;;
8952;SDS011;4511;50.890;8.054;2024-02-23T08:52:27;5.83;;;2.60;;
8952;SDS011;4511;50.890;8.054;2024-02-23T08:54:53;6.50;;;2.53;;
8952;SDS011;4511;50.890;8.054;2024-02-23T08:57:20;7.10;;;2.77;;
8952;SDS011;4511;50.890;8.054;2024-02-23T08:59:47;6.70;;;2.80;;
8952;SDS011;4511;50.890;8.054;2024-02-23T09:02:15;5.93;;;2.40;;
8952;SDS011;4511;50.890;8.054;2024-02-23T09:04:42;5.87;;;3.00;;
8952;SDS011;4511;50.890;8.054;2024-02-23T09:07:09;5.63;;;2.60;;
8952;SDS011;4511;50.890;8.054;2024-02-23T09:09:36;5.50;;;2.63;;
8952;SDS011;4511;50.890;8.054;2024-02-23T09:12:03;5.33;;;2.77;;
8952;SDS011;4511;50.890;8.054;2024-02-23T09:14:31;7.17;;;2.80;;
8952;SDS011;4511;50.890;8.054;2024-02-23T09:17:00;4.57;;;2.40;;
8952;SDS011;4511;50.890;8.054;2024-02-23T09:19:28;5.80;;;2.67;;
8952;SDS011;4511;50.890;8.054;2024-02-23T09:21:55;3.50;;;2.63;;
8952;SDS011;4511;50.890;8.054;2024-02-23T09:24:21;6.37;;;2.80;;
8952;SDS011;4511;50.890;8.054;2024-02-23T09:26:48;6.77;;;2.67;;
8952;SDS011;4511;50.890;8.054;2024-02-23T09:29:15;4.67;;;2.50;;
8952;SDS011;4511;50.890;8.054;2024-02-23T09:31:41;9.67;;;2.90;;
8952;SDS011;4511;50.890;8.054;2024-02-23T09:34:08;3.83;;;2.57;;
8952;SDS011;4511;50.890;8.054;2024-02-23T09:36:36;3.23;;;2.50;;
8952;SDS011;4511;50.890;8.054;2024-02-23T09:39:03;6.67;;;2.77;;
8952;SDS011;4511;50.890;8.054;2024-02-23T09:41:30;7.17;;;2.77;;
8952;SDS011;4511;50.890;8.054;2024-02-23T09:44:00;8.20;;;2.60;;
8952;SDS011;4511;50.890;8.054;2024-02-23T09:46:28;5.10;;;2.80;;
8952;SDS011;4511;50.890;8.054;2024-02-23T09:48:55;5.57;;;2.50;;
8952;SDS011;4511;50.890;8.054;2024-02-23T09:51:23;6.50;;;2.20;;
8952;SDS011;4511;50.890;8.054;2024-02-23T09:53:53;7.50;;;2.60;;
8952;SDS011;4511;50.890;8.054;2024-02-23T09:56:20;4.33;;;2.40;;
8952;SDS011;4511;50.890;8.054;2024-02-23T09:58:49;2.50;;;2.27;;
8952;SDS011;4511;50.890;8.054;2024-02-23T10:01:20;5.27;;;2.40;;
8952;SDS011;4511;50.890;8.054;2024-02-23T10:03:53;4.00;;;2.03;;
8952;SDS011;4511;50.890;8.054;2024-02-23T10:06:22;8.43;;;2.50;;
8952;SDS011;4511;50.890;8.054;2024-02-23T10:08:49;5.20;;;2.40;;
8952;SDS011;4511;50.890;8.054;2024-02-23T10:11:19;6.23;;;2.80;;
8952;SDS011;4511;50.890;8.054;2024-02-23T10:13:47;4.57;;;2.30;;
8952;SDS011;4511;50.890;8.054;2024-02-23T10:16:14;5.60;;;2.33;;
8952;SDS011;4511;50.890;8.054;2024-02-23T10:18:41;3.13;;;2.17;;
8952;SDS011;4511;50.890;8.054;2024-02-23T10:21:08;10.10;;;2.57;;
8952;SDS011;4511;50.890;8.054;2024-02-23T10:23:35;4.23;;;2.27;;
8952;SDS011;4511;50.890;8.054;2024-02-23T10:26:02;4.40;;;2.33;;
8952;SDS011;4511;50.890;8.054;2024-02-23T10:28:32;4.70;;;2.30;;
8952;SDS011;4511;50.890;8.054;2024-02-23T10:30:59;5.87;;;2.60;;
8952;SDS011;4511;50.890;8.054;2024-02-23T10:33:27;5.73;;;2.47;;
8952;SDS011;4511;50.890;8.054;2024-02-23T10:35:55;4.07;;;2.30;;
8952;SDS011;4511;50.890;8.054;2024-02-23T10:38:23;3.97;;;2.73;;
8952;SDS011;4511;50.890;8.054;2024-02-23T10:40:50;5.40;;;2.40;;
8952;SDS011;4511;50.890;8.054;2024-02-23T10:43:21;3.37;;;2.43;;
8952;SDS011;4511;50.890;8.054;2024-02-23T10:45:55;6.57;;;2.47;;
8952;SDS011;4511;50.890;8.054;2024-02-23T10:48:23;4.20;;;2.70;;
8952;SDS011;4511;50.890;8.054;2024-02-23T10:50:51;6.27;;;2.57;;
8952;SDS011;4511;50.890;8.054;2024-02-23T10:53:18;6.73;;;2.57;;
8952;SDS011;4511;50.890;8.054;2024-02-23T10:55:46;3.73;;;2.30;;
8952;SDS011;4511;50.890;8.054;2024-02-23T10:58:14;4.47;;;2.60;;
8952;SDS011;4511;50.890;8.054;2024-02-23T11:00:41;2.97;;;2.37;;
8952;SDS011;4511;50.890;8.054;2024-02-23T11:03:12;4.47;;;2.60;;
8952;SDS011;4511;50.890;8.054;2024-02-23T11:05:40;4.13;;;2.43;;
8952;SDS011;4511;50.890;8.054;2024-02-23T11:08:07;2.47;;;2.27;;
8952;SDS011;4511;50.890;8.054;2024-02-23T11:10:41;4.63;;;2.40;;
8952;SDS011;4511;50.890;8.054;2024-02-23T11:13:08;8.10;;;2.80;;
8952;SDS011;4511;50.890;8.054;2024-02-23T11:15:35;3.90;;;2.33;;
8952;SDS011;4511;50.890;8.054;2024-02-23T11:18:22;5.17;;;2.20;;
8952;SDS011;4511;50.890;8.054;2024-02-23T11:20:53;5.60;;;2.40;;
8952;SDS011;4511;50.890;8.054;2024-02-23T11:23:21;4.67;;;2.20;;
8952;SDS011;4511;50.890;8.054;2024-02-23T11:25:58;4.27;;;2.20;;
8952;SDS011;4511;50.890;8.054;2024-02-23T11:28:26;6.23;;;2.20;;
8952;SDS011;4511;50.890;8.054;2024-02-23T11:30:53;2.20;;;2.00;;
8952;SDS011;4511;50.890;8.054;2024-02-23T11:33:26;6.93;;;2.30;;
8952;SDS011;4511;50.890;8.054;2024-02-23T11:35:53;4.77;;;2.30;;
8952;SDS011;4511;50.890;8.054;2024-02-23T11:38:30;6.03;;;2.40;;
8952;SDS011;4511;50.890;8.054;2024-02-23T11:40:58;3.83;;;2.17;;
8952;SDS011;4511;50.890;8.054;2024-02-23T11:43:26;5.53;;;2.30;;
8952;SDS011;4511;50.890;8.054;2024-02-23T11:45:53;3.13;;;2.10;;
8952;SDS011;4511;50.890;8.054;2024-02-23T11:48:20;3.70;;;2.00;;
8952;SDS011;4511;50.890;8.054;2024-02-23T11:50:48;4.47;;;2.50;;
8952;SDS011;4511;50.890;8.054;2024-02-23T11:53:16;4.40;;;2.00;;
8952;SDS011;4511;50.890;8.054;2024-02-23T11:55:44;2.93;;;2.07;;
8952;SDS011;4511;50.890;8.054;2024-02-23T11:58:11;10.20;;;2.63;;
8952;SDS011;4511;50.890;8.054;2024-02-23T12:00:37;3.93;;;2.33;;
8952;SDS011;4511;50.890;8.054;2024-02-23T12:03:06;5.10;;;1.97;;
8952;SDS011;4511;50.890;8.054;2024-02-23T12:05:33;2.73;;;1.97;;
8952;SDS011;4511;50.890;8.054;2024-02-23T12:08:01;4.43;;;2.10;;
8952;SDS011;4511;50.890;8.054;2024-02-23T12:10:29;3.97;;;2.20;;
8952;SDS011;4511;50.890;8.054;2024-02-23T12:12:56;3.10;;;2.10;;
8952;SDS011;4511;50.890;8.054;2024-02-23T12:15:24;4.90;;;1.97;;
8952;SDS011;4511;50.890;8.054;2024-02-23T12:17:52;4.73;;;2.13;;
8952;SDS011;4511;50.890;8.054;2024-02-23T12:20:19;3.43;;;2.13;;
8952;SDS011;4511;50.890;8.054;2024-02-23T12:22:47;3.93;;;1.90;;
8952;SDS011;4511;50.890;8.054;2024-02-23T12:25:15;2.27;;;2.03;;
8952;SDS011;4511;50.890;8.054;2024-02-23T12:27:42;2.97;;;1.90;;
8952;SDS011;4511;50.890;8.054;2024-02-23T12:30:12;2.33;;;1.67;;
8952;SDS011;4511;50.890;8.054;2024-02-23T12:32:40;4.40;;;1.70;;
8952;SDS011;4511;50.890;8.054;2024-02-23T12:35:07;3.33;;;2.03;;
8952;SDS011;4511;50.890;8.054;2024-02-23T12:37:36;3.37;;;1.90;;
8952;SDS011;4511;50.890;8.054;2024-02-23T12:40:04;2.80;;;2.20;;
8952;SDS011;4511;50.890;8.054;2024-02-23T12:42:33;2.20;;;1.90;;
8952;SDS011;4511;50.890;8.054;2024-02-23T12:45:00;6.67;;;2.30;;
8952;SDS011;4511;50.890;8.054;2024-02-23T12:47:27;3.67;;;2.13;;
8952;SDS011;4511;50.890;8.054;2024-02-23T12:49:53;2.43;;;1.97;;
8952;SDS011;4511;50.890;8.054;2024-02-23T12:52:20;2.10;;;1.90;;
8952;SDS011;4511;50.890;8.054;2024-02-23T12:54:47;2.27;;;1.93;;
8952;SDS011;4511;50.890;8.054;2024-02-23T12:57:13;2.73;;;2.00;;
8952;SDS011;4511;50.890;8.054;2024-02-23T12:59:41;1.97;;;1.80;;
8952;SDS011;4511;50.890;8.054;2024-02-23T13:02:08;2.97;;;1.90;;
8952;SDS011;4511;50.890;8.054;2024-02-23T13:04:37;3.93;;;2.10;;
8952;SDS011;4511;50.890;8.054;2024-02-23T13:07:05;2.13;;;1.90;;
8952;SDS011;4511;50.890;8.054;2024-02-23T13:09:32;3.40;;;2.00;;
8952;SDS011;4511;50.890;8.054;2024-02-23T13:11:59;2.87;;;2.00;;
8952;SDS011;4511;50.890;8.054;2024-02-23T13:14:25;3.77;;;2.20;;
8952;SDS011;4511;50.890;8.054;2024-02-23T13:16:53;4.40;;;2.20;;
8952;SDS011;4511;50.890;8.054;2024-02-23T13:19:20;3.77;;;2.17;;
8952;SDS011;4511;50.890;8.054;2024-02-23T13:21:47;3.13;;;2.17;;
8952;SDS011;4511;50.890;8.054;2024-02-23T13:24:13;2.17;;;1.90;;
8952;SDS011;4511;50.890;8.054;2024-02-23T13:26:41;1.90;;;1.80;;
8952;SDS011;4511;50.890;8.054;2024-02-23T13:29:08;2.33;;;1.70;;
8952;SDS011;4511;50.890;8.054;2024-02-23T13:31:35;1.93;;;1.80;;
8952;SDS011;4511;50.890;8.054;2024-02-23T13:34:05;1.77;;;1.67;;
8952;SDS011;4511;50.890;8.054;2024-02-23T13:36:32;2.43;;;1.80;;
8952;SDS011;4511;50.890;8.054;2024-02-23T13:38:59;3.50;;;1.90;;
8952;SDS011;4511;50.890;8.054;2024-02-23T13:41:26;2.97;;;1.97;;
8952;SDS011;4511;50.890;8.054;2024-02-23T13:43:52;2.10;;;1.77;;
8952;SDS011;4511;50.890;8.054;2024-02-23T13:46:20;4.73;;;1.90;;
8952;SDS011;4511;50.890;8.054;2024-02-23T13:48:47;2.67;;;1.90;;
8952;SDS011;4511;50.890;8.054;2024-02-23T13:51:29;2.10;;;1.90;;
8952;SDS011;4511;50.890;8.054;2024-02-23T13:53:55;2.30;;;2.10;;
8952;SDS011;4511;50.890;8.054;2024-02-23T13:56:22;2.50;;;2.00;;
8952;SDS011;4511;50.890;8.054;2024-02-23T13:58:49;2.30;;;1.90;;
8952;SDS011;4511;50.890;8.054;2024-02-23T14:01:15;3.03;;;2.00;;
8952;SDS011;4511;50.890;8.054;2024-02-23T14:03:42;2.73;;;1.83;;
8952;SDS011;4511;50.890;8.054;2024-02-23T14:06:09;2.97;;;1.90;;
8952;SDS011;4511;50.890;8.054;2024-02-23T14:08:37;2.23;;;1.73;;
8952;SDS011;4511;50.890;8.054;2024-02-23T14:11:04;2.73;;;1.90;;
8952;SDS011;4511;50.890;8.054;2024-02-23T14:13:31;4.17;;;2.13;;
8952;SDS011;4511;50.890;8.054;2024-02-23T14:15:58;3.37;;;2.00;;
8952;SDS011;4511;50.890;8.054;2024-02-23T14:18:26;4.83;;;1.97;;
8952;SDS011;4511;50.890;8.054;2024-02-23T14:20:52;2.07;;;1.87;;
8952;SDS011;4511;50.890;8.054;2024-02-23T14:23:19;3.20;;;1.80;;
8952;SDS011;4511;50.890;8.054;2024-02-23T14:25:47;3.40;;;1.77;;
8952;SDS011;4511;50.890;8.054;2024-02-23T14:28:14;3.87;;;2.23;;
8952;SDS011;4511;50.890;8.054;2024-02-23T14:30:40;4.10;;;1.80;;
8952;SDS011;4511;50.890;8.054;2024-02-23T14:33:08;1.80;;;1.70;;
8952;SDS011;4511;50.890;8.054;2024-02-23T14:35:34;2.13;;;1.93;;
8952;SDS011;4511;50.890;8.054;2024-02-23T14:38:01;2.87;;;1.90;;
8952;SDS011;4511;50.890;8.054;2024-02-23T14:40:28;2.47;;;2.00;;
8952;SDS011;4511;50.890;8.054;2024-02-23T14:42:56;3.27;;;1.90;;
8952;SDS011;4511;50.890;8.054;2024-02-23T14:45:24;2.70;;;1.80;;
8952;SDS011;4511;50.890;8.054;2024-02-23T14:47:53;2.67;;;1.97;;
8952;SDS011;4511;50.890;8.054;2024-02-23T14:50:19;2.73;;;1.93;;
8952;SDS011;4511;50.890;8.054;2024-02-23T14:52:46;5.03;;;2.30;;
8952;SDS011;4511;50.890;8.054;2024-02-23T14:55:13;4.07;;;2.03;;
8952;SDS011;4511;50.890;8.054;2024-02-23T14:57:40;2.80;;;2.27;;
8952;SDS011;4511;50.890;8.054;2024-02-23T15:00:08;2.83;;;2.10;;
8952;SDS011;4511;50.890;8.054;2024-02-23T15:02:36;3.53;;;2.17;;
8952;SDS011;4511;50.890;8.054;2024-02-23T15:05:03;3.13;;;2.10;;
8952;SDS011;4511;50.890;8.054;2024-02-23T15:07:30;2.53;;;2.03;;
8952;SDS011;4511;50.890;8.054;2024-02-23T15:09:58;4.43;;;2.30;;
8952;SDS011;4511;50.890;8.054;2024-02-23T15:12:27;3.53;;;2.20;;
8952;SDS011;4511;50.890;8.054;2024-02-23T15:14:54;4.93;;;2.30;;
8952;SDS011;4511;50.890;8.054;2024-02-23T15:17:22;4.70;;;2.20;;
8952;SDS011;4511;50.890;8.054;2024-02-23T15:19:49;2.23;;;1.97;;